Time;durP1;ratioP1;P1;durP2;ratioP2;P2;SDS_P1;SDS_P2;PMS_P1;PMS_P2;Temp;Humidity;BMP_temperature;BMP_pressure;BME280_temperature;BME280_humidity;BME280_pressure;Samples;Min_cycle;Max_cycle;Signal;HPM_P1;HPM_P2
2023/08/18 00:01:39;;;;;;;10.63;5.07;;;;;;;20.31;89.88;151134.91;4972843;28;20230;-55
2023/08/18 00:04:06;;;;;;;7.63;4.27;;;;;;;20.16;89.96;151099.81;4970492;28;20334;-55
2023/08/18 00:06:32;;;;;;;6.67;4.17;;;;;;;20.05;90.94;151073.53;4974128;28;20250;-55
2023/08/18 00:08:59;;;;;;;8.40;4.33;;;;;;;20.03;95.63;151068.53;4976364;28;20236;-55
2023/08/18 00:11:25;;;;;;;9.77;4.63;;;;;;;19.91;95.31;151039.75;4973114;28;20233;-55
2023/08/18 00:13:53;;;;;;;10.10;5.00;;;;;;;19.85;96.19;151023.38;4987767;28;20237;-54
2023/08/18 00:16:20;;;;;;;12.93;4.90;;;;;;;19.82;96.28;151015.88;4969384;28;20247;-55
2023/08/18 00:18:46;;;;;;;13.80;5.30;;;;;;;19.77;95.10;151005.84;4974404;28;20232;-54
2023/08/18 00:21:14;;;;;;;12.53;4.77;;;;;;;19.73;97.60;150995.81;4969362;28;20240;-55
2023/08/18 00:23:41;;;;;;;7.93;4.40;;;;;;;19.73;98.16;150994.59;4973752;28;20235;-56
2023/08/18 00:26:10;;;;;;;11.00;5.30;;;;;;;19.57;98.69;150957.03;4984273;28;20239;-53
2023/08/18 00:28:36;;;;;;;8.87;4.50;;;;;;;19.52;98.87;150944.50;4972597;28;20230;-55
2023/08/18 00:31:04;;;;;;;10.70;5.37;;;;;;;19.50;96.03;150939.47;4966990;28;20234;-53
2023/08/18 00:33:31;;;;;;;6.67;4.53;;;;;;;19.45;96.46;150926.97;4976849;28;20219;-53
2023/08/18 00:35:58;;;;;;;11.63;4.43;;;;;;;19.40;98.07;150914.44;4977640;28;20224;-54
2023/08/18 00:38:24;;;;;;;9.87;5.03;;;;;;;19.30;100.00;150891.91;4973760;28;20302;-53
2023/08/18 00:40:51;;;;;;;9.47;4.63;;;;;;;19.29;100.00;150889.38;4974985;28;20734;-54
2023/08/18 00:43:18;;;;;;;10.50;4.97;;;;;;;19.24;100.00;150876.88;4980599;28;20235;-55
2023/08/18 00:45:44;;;;;;;8.40;4.90;;;;;;;19.17;99.66;150860.63;4974577;28;20227;-55
2023/08/18 00:48:11;;;;;;;10.63;4.80;;;;;;;19.24;100.00;150876.88;4976047;28;20224;-55
2023/08/18 00:50:38;;;;;;;7.80;4.60;;;;;;;19.13;100.00;150850.59;4985670;28;20229;-54
2023/08/18 00:53:05;;;;;;;9.23;5.20;;;;;;;19.06;100.00;150831.84;4977877;28;20234;-53
2023/08/18 00:55:32;;;;;;;8.30;4.67;;;;;;;18.98;100.00;150814.31;4978362;28;20232;-54
2023/08/18 00:58:01;;;;;;;8.10;4.83;;;;;;;18.97;100.00;150811.81;4990830;28;20228;-53
2023/08/18 01:00:28;;;;;;;12.87;4.80;;;;;;;18.92;100.00;150797.97;4975833;28;20231;-56
2023/08/18 01:02:55;;;;;;;9.20;4.63;;;;;;;18.91;100.00;150796.72;4978699;28;20233;-53
2023/08/18 01:05:26;;;;;;;7.77;4.90;;;;;;;18.93;100.00;150800.47;4981397;28;20590;-53
2023/08/18 01:07:52;;;;;;;6.83;3.90;;;;;;;18.85;100.00;150781.72;4985025;28;20245;-55
2023/08/18 01:10:21;;;;;;;9.33;4.70;;;;;;;18.77;100.00;150761.69;4988877;28;20249;-55
2023/08/18 01:12:56;;;;;;;6.00;4.30;;;;;;;18.74;100.00;150755.41;4983365;28;20255;-53
2023/08/18 01:15:27;;;;;;;9.37;4.80;;;;;;;18.66;100.00;150736.66;4981220;28;20237;-55
2023/08/18 01:17:56;;;;;;;6.37;4.67;;;;;;;18.58;100.00;150716.63;4975423;28;20232;-55
2023/08/18 01:20:23;;;;;;;9.83;4.80;;;;;;;18.52;100.00;150701.59;4973431;28;20235;-55
2023/08/18 01:22:56;;;;;;;8.67;4.80;;;;;;;18.49;100.00;150694.09;4973808;28;20222;-53
2023/08/18 01:25:23;;;;;;;6.70;4.70;;;;;;;18.44;100.00;150682.84;4979919;28;20250;-55
2023/08/18 01:27:51;;;;;;;9.50;4.33;;;;;;;18.38;100.00;150669.06;4995386;28;20230;-54
2023/08/18 01:30:18;;;;;;;8.57;4.70;;;;;;;18.31;100.00;150650.31;4975811;28;20310;-54
2023/08/18 01:32:51;;;;;;;7.00;4.80;;;;;;;18.34;100.00;150659.03;4983049;28;20752;-54
2023/08/18 01:35:19;;;;;;;7.07;4.50;;;;;;;18.28;100.00;150644.03;4980540;28;20230;-55
2023/08/18 01:37:47;;;;;;;6.40;5.03;;;;;;;18.31;100.00;150650.31;4983986;28;20218;-55
2023/08/18 01:40:17;;;;;;;7.10;4.53;;;;;;;18.28;100.00;150644.03;4980662;28;20251;-55
2023/08/18 01:42:46;;;;;;;6.93;4.40;;;;;;;18.25;100.00;150636.50;4991030;28;20219;-53
2023/08/18 01:45:14;;;;;;;8.83;4.27;;;;;;;18.21;100.00;150627.78;4975817;28;20226;-55
2023/08/18 01:47:42;;;;;;;9.10;4.63;;;;;;;18.30;100.00;150649.03;4983875;28;20660;-54
2023/08/18 01:50:09;;;;;;;7.70;4.30;;;;;;;18.27;100.00;150642.78;4975346;28;20242;-55
2023/08/18 01:52:36;;;;;;;11.07;4.63;;;;;;;18.22;100.00;150630.28;4976261;28;20238;-54
2023/08/18 01:55:02;;;;;;;13.77;4.13;;;;;;;18.24;100.00;150635.28;4990744;28;20223;-54
2023/08/18 01:57:30;;;;;;;8.43;4.00;;;;;;;18.20;100.00;150624.00;4981440;28;20729;-54
2023/08/18 01:59:57;;;;;;;7.87;4.43;;;;;;;18.10;100.00;150601.47;4975163;28;20305;-53
2023/08/18 02:02:24;;;;;;;8.23;3.97;;;;;;;18.04;100.00;150585.22;4974496;28;20237;-56
2023/08/18 02:04:51;;;;;;;4.80;4.10;;;;;;;17.97;100.00;150570.16;4977589;28;20215;-55
2023/08/18 02:07:18;;;;;;;7.27;4.10;;;;;;;18.03;100.00;150583.94;4978713;28;20930;-55
2023/08/18 02:09:48;;;;;;;8.23;4.10;;;;;;;18.08;100.00;150595.25;4978095;28;20225;-55
2023/08/18 02:12:15;;;;;;;5.10;4.30;;;;;;;18.04;100.00;150586.47;4974179;28;20590;-54
2023/08/18 02:14:43;;;;;;;7.17;4.20;;;;;;;17.97;100.00;150568.94;4974861;28;20232;-55
2023/08/18 02:17:09;;;;;;;5.73;3.77;;;;;;;17.92;100.00;150556.44;4975838;28;20233;-55
2023/08/18 02:19:36;;;;;;;6.87;3.93;;;;;;;17.88;100.00;150546.41;4976131;28;20284;-56
2023/08/18 02:22:02;;;;;;;7.00;3.60;;;;;;;17.89;100.00;150550.16;4976833;28;20237;-55
2023/08/18 02:24:29;;;;;;;10.97;3.87;;;;;;;17.82;100.00;150533.91;4980203;28;20242;-54
2023/08/18 02:26:56;;;;;;;8.40;4.40;;;;;;;17.84;100.00;150538.91;4983867;28;20332;-52
2023/08/18 02:29:23;;;;;;;4.93;3.70;;;;;;;17.79;100.00;150525.13;4980272;28;20224;-54
2023/08/18 02:31:52;;;;;;;7.40;4.20;;;;;;;17.75;100.00;150516.38;4973765;28;20255;-55
2023/08/18 02:34:19;;;;;;;6.40;3.97;;;;;;;17.78;100.00;150522.63;4976224;28;20261;-55
2023/08/18 02:36:45;;;;;;;9.37;3.63;;;;;;;17.71;100.00;150507.59;4975262;28;20235;-54
2023/08/18 02:39:12;;;;;;;8.53;4.20;;;;;;;17.65;100.00;150491.38;4974363;28;20609;-56
2023/08/18 02:41:39;;;;;;;7.87;4.27;;;;;;;17.66;100.00;150493.88;4981845;28;20299;-55
2023/08/18 02:44:06;;;;;;;7.23;3.70;;;;;;;17.64;100.00;150488.88;4975184;28;20236;-55
2023/08/18 02:46:34;;;;;;;7.60;4.10;;;;;;;17.51;100.00;150458.84;4980241;28;20233;-55
2023/08/18 02:49:03;;;;;;;7.27;4.50;;;;;;;17.46;100.00;150445.09;4973326;28;20235;-55
2023/08/18 02:51:30;;;;;;;5.33;3.83;;;;;;;17.49;100.00;150453.84;4975614;28;20242;-55
2023/08/18 02:53:57;;;;;;;6.10;3.30;;;;;;;17.46;100.00;150446.31;4975473;28;20284;-53
2023/08/18 02:56:23;;;;;;;5.90;3.50;;;;;;;17.39;100.00;150428.81;4975005;28;20244;-55
2023/08/18 02:58:50;;;;;;;8.27;3.53;;;;;;;17.43;100.00;150438.81;4974530;28;20697;-55
2023/08/18 03:03:58;;;;;;;5.60;3.77;;;;;;;17.35;100.00;150418.81;5630572;23;20356;-59
2023/08/18 03:06:26;;;;;;;4.97;3.40;;;;;;;17.32;100.00;150412.56;4985965;28;21815;-59
2023/08/18 03:08:53;;;;;;;8.60;3.93;;;;;;;17.25;100.00;150395.06;4975586;28;20779;-59
2023/08/18 03:11:19;;;;;;;8.00;4.27;;;;;;;17.23;100.00;150390.06;4972154;28;20227;-57
2023/08/18 03:13:46;;;;;;;6.80;4.13;;;;;;;17.26;100.00;150398.78;5000434;28;20229;-59
2023/08/18 03:16:13;;;;;;;8.20;4.53;;;;;;;17.24;100.00;150393.78;5001473;28;20587;-59
2023/08/18 03:18:41;;;;;;;9.17;4.47;;;;;;;17.32;100.00;150411.31;5000922;28;20636;-59
2023/08/18 03:21:07;;;;;;;8.43;4.83;;;;;;;17.25;100.00;150396.28;4989987;28;20231;-59
2023/08/18 03:23:35;;;;;;;11.63;5.43;;;;;;;17.18;100.00;150378.78;4975502;28;20249;-59
2023/08/18 03:26:03;;;;;;;8.33;4.50;;;;;;;17.15;100.00;150370.06;5000459;28;20604;-59
2023/08/18 03:28:32;;;;;;;7.30;4.10;;;;;;;17.16;100.00;150372.56;4997124;28;20609;-59
2023/08/18 03:31:01;;;;;;;9.27;4.60;;;;;;;17.04;100.00;150343.75;5209273;23;20238;-58
2023/08/18 03:33:30;;;;;;;8.43;3.80;;;;;;;16.98;100.00;150330.03;4978814;28;20301;-58
2023/08/18 03:35:57;;;;;;;10.00;5.20;;;;;;;16.94;100.00;150321.25;4971820;28;20227;-58
2023/08/18 03:38:24;;;;;;;7.30;4.30;;;;;;;16.99;100.00;150332.53;4980373;28;20575;-58
2023/08/18 03:40:59;;;;;;;7.63;3.87;;;;;;;16.93;100.00;150317.47;4981531;28;20273;-58
2023/08/18 03:43:26;;;;;;;9.57;4.50;;;;;;;16.86;100.00;150301.25;4969897;28;20238;-59
2023/08/18 03:45:53;;;;;;;8.30;4.60;;;;;;;16.80;100.00;150286.25;4980935;28;20221;-59
2023/08/18 03:48:20;;;;;;;9.37;4.87;;;;;;;16.75;100.00;150273.75;4973615;28;20222;-59
2023/08/18 03:50:46;;;;;;;9.60;4.83;;;;;;;16.77;100.00;150278.75;4975914;28;20314;-59
2023/08/18 03:53:14;;;;;;;12.07;4.70;;;;;;;16.77;100.00;150278.75;4971507;28;20235;-59
2023/08/18 03:55:40;;;;;;;12.40;5.67;;;;;;;16.73;100.00;150268.75;4976217;28;20325;-58
2023/08/18 03:58:08;;;;;;;7.33;5.23;;;;;;;16.72;100.00;150266.22;4982911;28;20628;-58
2023/08/18 04:00:35;;;;;;;7.07;5.03;;;;;;;16.77;100.00;150279.97;4980176;28;20225;-58
2023/08/18 04:03:02;;;;;;;13.10;5.03;;;;;;;16.78;100.00;150282.47;4982304;28;20247;-59
2023/08/18 04:05:29;;;;;;;8.33;5.10;;;;;;;16.72;100.00;150266.22;4980413;28;20261;-59
2023/08/18 04:07:55;;;;;;;10.87;5.20;;;;;;;16.67;100.00;150254.97;4984888;28;20227;-59
2023/08/18 04:10:22;;;;;;;12.93;5.60;;;;;;;16.74;100.00;150272.47;4980451;28;20228;-59
2023/08/18 04:12:49;;;;;;;12.67;6.03;;;;;;;16.79;100.00;150283.75;4980932;28;20717;-59
2023/08/18 04:15:17;;;;;;;8.47;4.63;;;;;;;16.74;100.00;150271.22;4982959;28;20228;-59
2023/08/18 04:17:43;;;;;;;4.83;4.17;;;;;;;16.66;100.00;150253.72;4984428;28;20258;-59
2023/08/18 04:20:10;;;;;;;7.50;4.67;;;;;;;16.62;100.00;150243.72;4997291;28;20238;-62
2023/08/18 04:22:37;;;;;;;8.83;4.33;;;;;;;16.64;100.00;150248.72;4979879;28;20819;-59
2023/08/18 04:25:05;;;;;;;8.00;4.50;;;;;;;16.62;100.00;150243.72;4984995;28;20234;-58
2023/08/18 04:27:32;;;;;;;8.77;5.07;;;;;;;16.72;100.00;150267.47;4977273;28;20224;-59
2023/08/18 04:29:59;;;;;;;12.03;4.60;;;;;;;16.66;100.00;150252.47;4981833;28;20284;-58
2023/08/18 04:32:29;;;;;;;7.87;4.97;;;;;;;16.65;100.00;150251.22;4982782;28;20236;-58
2023/08/18 04:34:55;;;;;;;9.67;4.70;;;;;;;16.60;100.00;150238.72;4984784;28;20227;-58
2023/08/18 04:37:22;;;;;;;11.53;5.20;;;;;;;16.60;100.00;150238.72;4977849;28;20371;-59
2023/08/18 04:39:52;;;;;;;13.10;5.80;;;;;;;16.63;100.00;150246.22;4976922;28;20230;-59
2023/08/18 04:42:19;;;;;;;10.20;4.77;;;;;;;16.59;100.00;150234.94;4974238;28;20239;-59
2023/08/18 04:44:52;;;;;;;10.67;5.50;;;;;;;16.55;100.00;150226.22;4977084;28;20610;-59
2023/08/18 04:47:19;;;;;;;9.83;5.30;;;;;;;16.56;100.00;150227.44;4974783;28;20242;-59
2023/08/18 04:49:53;;;;;;;12.17;5.43;;;;;;;16.58;100.00;150232.44;4979966;28;20230;-58
2023/08/18 04:52:19;;;;;;;13.10;5.53;;;;;;;16.58;100.00;150233.72;4983181;28;20225;-58
2023/08/18 04:54:51;;;;;;;9.23;5.30;;;;;;;16.67;100.00;150256.22;4979231;28;20760;-58
2023/08/18 04:57:18;;;;;;;9.00;5.20;;;;;;;16.65;100.00;150251.22;4977199;28;20259;-58
2023/08/18 04:59:48;;;;;;;14.67;5.30;;;;;;;16.64;100.00;150247.44;4976299;28;20239;-58
2023/08/18 05:02:15;;;;;;;6.10;4.73;;;;;;;16.67;100.00;150254.97;4984390;28;20237;-58
2023/08/18 05:04:41;;;;;;;11.53;5.17;;;;;;;16.68;100.00;150258.72;4976339;28;20324;-58
2023/08/18 05:07:09;;;;;;;10.17;4.83;;;;;;;16.71;100.00;150263.72;4974093;28;20250;-58
2023/08/18 05:09:36;;;;;;;8.93;4.77;;;;;;;16.72;100.00;150266.22;4977097;28;20234;-58
2023/08/18 05:12:03;;;;;;;12.83;5.10;;;;;;;16.73;100.00;150268.75;4979774;28;21034;-58
2023/08/18 05:14:29;;;;;;;9.27;5.17;;;;;;;16.78;100.00;150282.47;4976850;28;20807;-58
2023/08/18 05:16:56;;;;;;;12.30;5.70;;;;;;;16.80;100.00;150287.47;4977224;28;20215;-59
2023/08/18 05:19:22;;;;;;;12.53;6.40;;;;;;;16.83;100.00;150293.75;4975947;28;20237;-58
2023/08/18 05:21:49;;;;;;;10.07;5.70;;;;;;;16.89;100.00;150308.75;4979871;28;20241;-58
2023/08/18 05:24:17;;;;;;;11.27;5.73;;;;;;;16.95;100.00;150322.47;4975673;28;20229;-58
2023/08/18 05:26:44;;;;;;;8.63;4.83;;;;;;;16.99;100.00;150331.25;4979995;28;20232;-59
2023/08/18 05:29:11;;;;;;;10.27;5.90;;;;;;;17.07;100.00;150351.25;4978413;28;20233;-59
2023/08/18 05:31:38;;;;;;;12.13;5.80;;;;;;;17.08;100.00;150355.03;4977571;28;20316;-59
2023/08/18 05:34:05;;;;;;;8.30;5.50;;;;;;;17.11;100.00;150361.28;4979506;28;20281;-59
2023/08/18 05:36:31;;;;;;;8.77;5.67;;;;;;;17.14;100.00;150368.78;4976238;28;20264;-59
2023/08/18 05:38:58;;;;;;;11.60;5.47;;;;;;;17.15;100.00;150371.28;4978197;28;20732;-60
2023/08/18 05:41:26;;;;;;;9.90;5.53;;;;;;;17.19;100.00;150381.28;4979038;28;20226;-59
2023/08/18 05:43:52;;;;;;;9.93;5.07;;;;;;;17.25;100.00;150395.06;4978954;28;20245;-59
2023/08/18 05:46:19;;;;;;;11.70;5.63;;;;;;;17.28;100.00;150402.56;4973964;28;20221;-58
2023/08/18 05:48:46;;;;;;;8.53;5.40;;;;;;;17.35;100.00;150418.81;4979553;28;20234;-59
2023/08/18 05:51:12;;;;;;;8.70;5.40;;;;;;;17.37;100.00;150425.09;4978473;28;20234;-59
2023/08/18 05:53:39;;;;;;;8.17;5.10;;;;;;;17.46;100.00;150445.09;4978711;28;20245;-58
2023/08/18 05:56:06;;;;;;;12.30;5.23;;;;;;;17.51;100.00;150457.56;4976980;28;20229;-59
2023/08/18 05:58:34;;;;;;;10.30;5.10;;;;;;;17.56;100.00;150470.06;4977571;28;20240;-58
2023/08/18 06:01:00;;;;;;;8.67;4.57;;;;;;;17.60;100.00;150478.84;4976715;28;20217;-58
2023/08/18 06:03:27;;;;;;;9.10;4.73;;;;;;;17.66;100.00;150495.09;4974346;28;20791;-59
2023/08/18 06:05:54;;;;;;;10.80;4.13;;;;;;;17.69;100.00;150501.38;4980016;28;20232;-58
2023/08/18 06:08:20;;;;;;;7.50;5.23;;;;;;;17.73;100.00;150511.38;4977469;28;20231;-58
2023/08/18 06:10:47;;;;;;;9.10;4.40;;;;;;;17.75;100.00;150516.38;4978150;28;20701;-58
2023/08/18 06:13:14;;;;;;;7.60;4.80;;;;;;;17.78;100.00;150522.63;4974816;28;20230;-59
2023/08/18 06:15:42;;;;;;;9.40;4.90;;;;;;;17.84;100.00;150538.91;4978426;28;20936;-58
2023/08/18 06:18:09;;;;;;;8.57;4.87;;;;;;;17.94;100.00;150561.44;4974190;28;20605;-58
2023/08/18 06:20:36;;;;;;;11.07;5.20;;;;;;;18.02;100.00;150580.22;4976315;28;20693;-58
2023/08/18 06:23:02;;;;;;;6.43;4.70;;;;;;;18.10;100.00;150601.47;4980027;28;20237;-58
2023/08/18 06:25:29;;;;;;;14.57;5.40;;;;;;;18.17;100.00;150616.50;4975043;28;20233;-59
2023/08/18 06:27:56;;;;;;;8.87;5.80;;;;;;;18.25;100.00;150636.50;4978792;28;20745;-59
2023/08/18 06:30:22;;;;;;;9.70;5.53;;;;;;;18.39;100.00;150671.56;4973224;28;20225;-58
2023/08/18 06:32:50;;;;;;;11.93;5.60;;;;;;;18.50;100.00;150697.88;4976947;28;20234;-60
2023/08/18 06:35:17;;;;;;;12.63;6.03;;;;;;;18.62;100.00;150725.34;4976621;28;20237;-59
2023/08/18 06:37:44;;;;;;;9.03;5.50;;;;;;;18.71;100.00;150749.16;4975728;28;20241;-59
2023/08/18 06:40:11;;;;;;;10.07;5.43;;;;;;;18.87;100.00;150786.72;4977539;28;20591;-56
2023/08/18 06:42:40;;;;;;;10.90;5.43;;;;;;;19.04;100.00;150828.06;4975404;28;20518;-59
2023/08/18 06:45:07;;;;;;;8.43;5.07;;;;;;;19.19;100.00;150864.34;4970066;28;20234;-60
2023/08/18 06:47:34;;;;;;;8.37;5.47;;;;;;;19.43;100.00;150921.94;4978123;28;20231;-58
2023/08/18 06:50:05;;;;;;;12.87;6.03;;;;;;;19.58;100.00;150958.28;4976575;28;20214;-59
2023/08/18 06:52:32;;;;;;;11.17;5.80;;;;;;;19.70;100.00;150988.31;4974200;28;21093;-60
2023/08/18 06:54:59;;;;;;;14.03;5.97;;;;;;;19.85;99.91;151024.66;4978032;28;20237;-63
2023/08/18 06:57:26;;;;;;;12.90;5.57;;;;;;;19.97;98.72;151052.25;4975519;28;20254;-59
2023/08/18 06:59:53;;;;;;;11.03;6.23;;;;;;;19.96;98.80;151049.75;4977269;28;20262;-59
2023/08/18 07:02:20;;;;;;;12.00;6.97;;;;;;;19.97;99.56;151053.50;4971689;28;20238;-59
2023/08/18 07:04:51;;;;;;;12.90;6.47;;;;;;;20.05;100.00;151072.31;4974321;28;20227;-58
2023/08/18 07:07:19;;;;;;;13.93;7.37;;;;;;;20.14;100.00;151093.59;4973809;28;20271;-59
2023/08/18 07:09:51;;;;;;;13.60;6.60;;;;;;;20.30;99.72;151132.41;4978625;28;20240;-57
2023/08/18 07:12:19;;;;;;;9.93;6.07;;;;;;;20.37;97.71;151148.72;4973682;28;20379;-58
2023/08/18 07:14:51;;;;;;;16.90;6.77;;;;;;;20.54;97.88;151190.03;4976622;28;20258;-59
2023/08/18 07:17:18;;;;;;;12.00;6.30;;;;;;;20.53;99.83;151187.53;4968267;28;20224;-58
2023/08/18 07:19:48;;;;;;;16.63;6.80;;;;;;;20.69;100.00;151227.63;4976622;28;20247;-60
2023/08/18 07:22:15;;;;;;;13.00;6.57;;;;;;;20.73;100.00;151237.66;4974712;28;20224;-59
2023/08/18 07:24:43;;;;;;;16.93;6.40;;;;;;;20.74;100.00;151240.16;4977900;28;20246;-59
2023/08/18 07:27:09;;;;;;;10.57;6.50;;;;;;;20.77;98.34;151246.41;4974886;28;20248;-59
2023/08/18 07:29:36;;;;;;;11.50;6.13;;;;;;;21.01;97.33;151305.38;4976310;28;20235;-57
2023/08/18 07:32:03;;;;;;;14.17;6.77;;;;;;;21.21;94.90;151354.25;4982934;28;20218;-57
2023/08/18 07:34:30;;;;;;;10.10;6.97;;;;;;;21.19;97.57;151348.00;4980436;28;20616;-59
2023/08/18 07:36:56;;;;;;;13.97;6.63;;;;;;;21.29;95.07;151373.03;4980913;28;20231;-59
2023/08/18 07:39:24;;;;;;;12.13;6.93;;;;;;;21.26;97.49;151365.50;4975531;28;20240;-59
2023/08/18 07:41:52;;;;;;;10.73;6.63;;;;;;;21.51;95.01;151425.69;4987434;28;20227;-59
2023/08/18 07:44:19;;;;;;;14.37;6.97;;;;;;;21.75;95.57;151483.41;4983774;28;20807;-59
2023/08/18 07:46:45;;;;;;;13.47;7.20;;;;;;;21.93;92.32;151528.56;4978796;28;20663;-59
2023/08/18 07:49:12;;;;;;;8.93;6.90;;;;;;;22.00;94.01;151544.84;4978269;28;20234;-59
2023/08/18 07:51:41;;;;;;;13.77;7.67;;;;;;;22.05;88.75;151557.38;4975359;28;20223;-59
2023/08/18 07:54:07;;;;;;;12.10;7.80;;;;;;;22.15;89.23;151581.22;4974155;28;20241;-60
2023/08/18 07:56:34;;;;;;;12.00;7.17;;;;;;;22.31;89.26;151618.81;4980804;28;20587;-60
2023/08/18 07:59:03;;;;;;;13.13;7.30;;;;;;;22.41;87.26;151643.91;4978637;28;20239;-59
2023/08/18 08:01:30;;;;;;;12.73;7.33;;;;;;;22.53;86.96;151674.06;4979235;28;20245;-59
2023/08/18 08:03:56;;;;;;;13.00;7.50;;;;;;;22.65;87.57;151701.66;4981337;28;20223;-59
2023/08/18 08:06:23;;;;;;;12.33;7.60;;;;;;;22.66;86.30;151705.44;4979287;28;20704;-59
2023/08/18 08:08:50;;;;;;;14.07;8.40;;;;;;;22.63;86.77;151697.91;4979864;28;20230;-60
2023/08/18 08:11:16;;;;;;;12.20;8.00;;;;;;;22.65;87.10;151701.66;4978380;28;20256;-60
2023/08/18 08:13:44;;;;;;;12.70;7.37;;;;;;;22.88;87.44;151758.09;4981245;28;20232;-60
2023/08/18 08:16:11;;;;;;;12.70;7.63;;;;;;;23.01;86.23;151789.47;4978129;28;20297;-60
2023/08/18 08:18:38;;;;;;;13.90;7.87;;;;;;;23.04;86.12;151795.72;4979475;28;20231;-60
2023/08/18 08:21:05;;;;;;;10.40;7.47;;;;;;;23.10;86.28;151812.06;4980436;28;20235;-59
2023/08/18 08:23:31;;;;;;;12.37;7.57;;;;;;;23.21;84.55;151837.16;4976925;28;20236;-60
2023/08/18 08:25:58;;;;;;;13.30;7.60;;;;;;;23.21;85.27;151837.16;4979619;28;20223;-59
2023/08/18 08:28:25;;;;;;;12.57;8.37;;;;;;;23.29;84.41;151857.28;4975874;28;20250;-59
2023/08/18 08:30:51;;;;;;;16.00;8.23;;;;;;;23.21;85.96;151838.41;4976959;28;20237;-59
2023/08/18 08:33:19;;;;;;;13.50;8.10;;;;;;;23.29;84.67;151857.28;4974693;28;20234;-60
2023/08/18 08:35:46;;;;;;;14.13;8.87;;;;;;;23.34;84.96;151869.78;4979011;28;20316;-60
2023/08/18 08:38:12;;;;;;;14.03;8.53;;;;;;;23.31;86.61;151861.03;4975884;28;20230;-60
2023/08/18 08:40:41;;;;;;;11.60;8.17;;;;;;;23.36;86.04;151874.81;4979807;28;20245;-59
2023/08/18 08:43:08;;;;;;;13.70;8.97;;;;;;;23.39;85.66;151881.13;4974969;28;20703;-59
2023/08/18 08:45:35;;;;;;;15.33;8.10;;;;;;;23.47;85.71;151901.19;4979074;28;20239;-59
2023/08/18 08:48:07;;;;;;;15.50;7.93;;;;;;;23.59;86.43;151930.03;4977136;28;20228;-59
2023/08/18 08:50:41;;;;;;;10.77;8.40;;;;;;;23.61;85.85;151935.06;4978701;28;20235;-59
2023/08/18 08:53:10;;;;;;;13.93;8.43;;;;;;;23.64;86.78;151942.59;4974848;28;20688;-60
2023/08/18 08:55:38;;;;;;;16.53;9.07;;;;;;;23.66;86.14;151946.38;4980388;28;20298;-59
2023/08/18 08:58:06;;;;;;;12.33;8.23;;;;;;;23.63;86.42;151940.09;4981717;28;20247;-60
2023/08/18 09:00:32;;;;;;;9.53;7.53;;;;;;;23.71;84.96;151958.94;4980120;28;20236;-59
2023/08/18 09:03:02;;;;;;;16.63;8.57;;;;;;;23.84;84.00;151991.56;4976904;28;20241;-59
2023/08/18 09:05:30;;;;;;;13.50;8.57;;;;;;;23.99;84.96;152026.72;4974307;28;20259;-59
2023/08/18 09:07:58;;;;;;;11.33;8.30;;;;;;;24.09;83.72;152051.84;4979119;28;20228;-59
2023/08/18 09:10:26;;;;;;;11.10;8.13;;;;;;;24.07;86.29;152045.56;4976733;28;22958;-59
2023/08/18 09:12:53;;;;;;;14.23;8.07;;;;;;;24.22;82.82;152083.25;4976938;28;20589;-59
2023/08/18 09:15:20;;;;;;;11.30;7.47;;;;;;;24.27;82.91;152095.81;4968476;28;20235;-60
2023/08/18 09:17:47;;;;;;;16.00;8.07;;;;;;;24.29;83.00;152100.81;4976865;28;20231;-59
2023/08/18 09:20:14;;;;;;;10.93;8.07;;;;;;;24.44;82.19;152135.94;4976925;28;20232;-59
2023/08/18 09:22:41;;;;;;;14.77;8.70;;;;;;;24.46;81.62;152140.97;4980450;28;20245;-59
2023/08/18 09:25:10;;;;;;;11.93;7.50;;;;;;;24.49;82.56;152148.50;4974795;28;20229;-58
2023/08/18 09:27:37;;;;;;;11.23;8.33;;;;;;;24.52;83.14;152154.78;4980805;28;20317;-59
2023/08/18 09:30:04;;;;;;;12.70;8.33;;;;;;;24.44;84.20;152137.22;4981322;28;20255;-59
2023/08/18 09:32:30;;;;;;;10.53;8.03;;;;;;;24.35;83.48;152113.38;4976920;28;20283;-59
2023/08/18 09:34:57;;;;;;;15.30;9.20;;;;;;;24.39;82.81;152124.66;4978900;28;20249;-60
2023/08/18 09:37:30;;;;;;;11.53;7.80;;;;;;;24.61;83.66;152177.41;4976503;28;20250;-59
2023/08/18 09:39:56;;;;;;;13.30;7.63;;;;;;;24.72;82.58;152203.75;4978320;28;20235;-59
2023/08/18 09:42:24;;;;;;;13.27;8.93;;;;;;;24.68;82.34;152193.69;4975854;28;20239;-59
2023/08/18 09:44:52;;;;;;;10.90;7.90;;;;;;;24.80;82.80;152223.88;4977383;28;20230;-58
2023/08/18 09:47:20;;;;;;;10.37;7.20;;;;;;;24.88;83.24;152244.00;4974140;28;20706;-59
2023/08/18 09:49:52;;;;;;;10.90;8.07;;;;;;;24.98;82.92;152266.59;4975901;28;20234;-59
2023/08/18 09:52:22;;;;;;;13.60;8.43;;;;;;;24.94;80.93;152256.53;4976575;28;20234;-59
2023/08/18 09:55:00;;;;;;;12.57;9.57;;;;;;;24.87;83.00;152241.47;4981593;28;20255;-59
2023/08/18 09:57:32;;;;;;;13.00;8.53;;;;;;;24.87;82.95;152240.25;4975525;28;20241;-59
2023/08/18 10:00:00;;;;;;;17.37;9.27;;;;;;;25.08;81.65;152290.44;4977324;28;20337;-60
2023/08/18 10:02:33;;;;;;;13.53;8.50;;;;;;;25.03;81.51;152279.16;4971390;28;20236;-58
2023/08/18 10:04:59;;;;;;;12.13;7.50;;;;;;;25.17;83.40;152313.03;4976236;28;20297;-59
2023/08/18 10:07:27;;;;;;;17.60;8.47;;;;;;;25.15;82.72;152308.03;4975975;28;21469;-59
2023/08/18 10:09:55;;;;;;;10.83;8.30;;;;;;;25.25;82.65;152331.91;4979408;28;20236;-60
2023/08/18 10:12:22;;;;;;;16.70;8.80;;;;;;;25.40;81.44;152369.59;4975887;28;20219;-58
2023/08/18 10:14:54;;;;;;;11.17;7.53;;;;;;;25.35;81.76;152358.28;4978858;28;20255;-59
2023/08/18 10:17:24;;;;;;;11.27;7.67;;;;;;;25.31;82.14;152347.00;4979903;28;20571;-59
2023/08/18 10:19:56;;;;;;;12.20;7.87;;;;;;;25.55;80.79;152404.78;4977708;28;20312;-60
2023/08/18 10:22:23;;;;;;;10.37;7.63;;;;;;;25.63;81.09;152424.88;4973699;28;20243;-59
2023/08/18 10:24:52;;;;;;;11.93;8.07;;;;;;;25.43;81.03;152377.16;4974776;28;20296;-59
2023/08/18 10:27:47;;;;;;;9.80;7.97;;;;;;;25.74;79.46;152451.28;4971293;28;20229;-57
2023/08/18 10:30:27;;;;;;;15.00;7.73;;;;;;;25.75;80.38;152455.03;4975283;28;20246;-55
2023/08/18 10:32:54;;;;;;;11.17;7.73;;;;;;;25.88;80.89;152486.47;4973306;28;20303;-58
2023/08/18 10:35:22;;;;;;;11.77;7.57;;;;;;;25.98;77.26;152510.34;4974245;28;20704;-57
2023/08/18 10:37:50;;;;;;;11.30;8.67;;;;;;;26.11;77.64;152540.50;4976046;28;20318;-59
2023/08/18 10:40:24;;;;;;;10.80;8.13;;;;;;;26.13;76.65;152545.53;4973486;28;20250;-60
2023/08/18 10:42:52;;;;;;;11.93;9.00;;;;;;;26.19;81.34;152560.66;4977479;28;20261;-59
2023/08/18 10:45:28;;;;;;;14.37;9.37;;;;;;;26.23;81.09;152570.72;4973069;28;20307;-59
2023/08/18 10:47:58;;;;;;;14.20;8.60;;;;;;;26.14;82.83;152548.09;4976030;28;20578;-60
2023/08/18 10:50:28;;;;;;;16.60;9.17;;;;;;;26.14;85.98;152549.31;4975786;28;20234;-57
2023/08/18 10:52:55;;;;;;;12.47;8.77;;;;;;;26.30;80.51;152588.31;4978397;28;20246;-58
2023/08/18 10:55:22;;;;;;;12.67;8.60;;;;;;;26.18;78.01;152559.38;4963609;28;20242;-58
2023/08/18 10:57:49;;;;;;;10.43;7.93;;;;;;;26.42;77.99;152617.19;4970126;28;20738;-58
2023/08/18 11:00:18;;;;;;;14.07;8.23;;;;;;;26.43;76.52;152618.47;4967866;28;20717;-58
2023/08/18 11:02:47;;;;;;;11.23;7.80;;;;;;;26.56;72.86;152649.88;4971212;28;20242;-58
2023/08/18 11:05:14;;;;;;;12.80;6.90;;;;;;;26.52;72.49;152642.31;4968592;28;20232;-58
2023/08/18 11:07:41;;;;;;;16.67;8.17;;;;;;;26.56;74.42;152649.88;4960423;28;20236;-57
2023/08/18 11:10:15;;;;;;;13.70;8.37;;;;;;;26.73;74.20;152691.34;4964907;28;20234;-58
2023/08/18 11:12:42;;;;;;;13.97;8.50;;;;;;;26.92;71.55;152737.91;4970916;28;20329;-57
2023/08/18 11:15:09;;;;;;;8.70;7.40;;;;;;;27.00;71.66;152756.75;4966424;28;20252;-58
2023/08/18 11:17:36;;;;;;;8.20;6.80;;;;;;;27.07;73.95;152775.59;4968538;28;20241;-56
2023/08/18 11:20:07;;;;;;;12.00;7.23;;;;;;;27.19;73.79;152803.25;4968360;28;20236;-58
2023/08/18 11:22:35;;;;;;;10.40;7.53;;;;;;;27.42;71.76;152859.88;4964655;28;20717;-57